Escribe el Código OACI del Aeropuerto

Buscar por Aeropuerto o Ciudad

Información Meteorológica Actual

LFML | Marseille Provence Airport

Marseille, Provence-Alpes-Côte d'Azur, France

Última Actualización Hace 26 Minutos

Cielo Despejado

11 ºC de Temperatura

Vientos Leves de Direcciones Variables

Temperatura

11 ºC

Temperatura del Punto de Rocío

03 ºC

Humedad Relativa

57.86 %

Dirección del Viento

Variable

Velocidad del Viento

2 km/h (01 kt)

Ráfagas

No Hay

Visibilidad

Sin Reducciones de Consideración

Presión Reducida a Nivel del Mar

1012 hPa (Hectopascales)

Capas de Nubes

No Hay

METAR LFML 071530Z AUTO VRB01KT CAVOK 11/03 Q1012 NOSIG

Pronóstico Meteorológico

LFML | Marseille Provence Airport

Marseille, Provence-Alpes-Côte d'Azur, France

Pronóstico válido para las próximas 29 Horas

A partir de este momento se espera:

Cielo Despejado

Vientos Leves a Moderados del Norte

En 5 a 7 horas se espera el comienzo de:

Lluvia

Vientos Moderados del SurEste

En 19 a 21 horas se espera el comienzo de:

Vientos Moderados del Oeste

En 23 a 25 horas se espera el comienzo de:

Vientos Moderados a Fuertes del Oeste con Ráfagas

Temperatura Máxima

12 ºC en 10 Horas

Temperatura Mínima

06 ºC en 29 Horas

TAF LFML 071400Z 0715/0821 34008KT CAVOK TX12/0802Z TN06/0821Z BECMG 0721/0723 12015KT 4000 RA BKN010 OVC025 BECMG 0811/0813 29010KT 9999 NSW BECMG 0815/0817 29020G30KT